sensor_id;sensor_type;location;lat;lon;timestamp;temperature;humidity
43999;DHT22;51319;52.162;5.302;2024-01-07T00:00:19;1.80;99.90
43999;DHT22;51319;52.162;5.302;2024-01-07T00:02:48;1.80;99.90
43999;DHT22;51319;52.162;5.302;2024-01-07T00:05:15;1.80;99.90
43999;DHT22;51319;52.162;5.302;2024-01-07T00:07:42;1.80;99.90
43999;DHT22;51319;52.162;5.302;2024-01-07T00:10:09;1.70;99.90
43999;DHT22;51319;52.162;5.302;2024-01-07T00:12:36;1.70;99.90
43999;DHT22;51319;52.162;5.302;2024-01-07T00:15:04;1.70;99.90
43999;DHT22;51319;52.162;5.302;2024-01-07T00:17:31;1.70;99.90
43999;DHT22;51319;52.162;5.302;2024-01-07T00:19:59;1.70;99.90
43999;DHT22;51319;52.162;5.302;2024-01-07T00:22:26;1.70;99.90
43999;DHT22;51319;52.162;5.302;2024-01-07T00:24:53;1.60;99.90
43999;DHT22;51319;52.162;5.302;2024-01-07T00:27:20;1.60;99.90
43999;DHT22;51319;52.162;5.302;2024-01-07T00:29:47;1.60;99.90
43999;DHT22;51319;52.162;5.302;2024-01-07T00:32:15;1.60;99.90
43999;DHT22;51319;52.162;5.302;2024-01-07T00:34:42;1.60;99.90
43999;DHT22;51319;52.162;5.302;2024-01-07T00:37:10;1.50;99.90
43999;DHT22;51319;52.162;5.302;2024-01-07T00:39:37;1.60;99.90
43999;DHT22;51319;52.162;5.302;2024-01-07T00:42:04;1.50;99.90
43999;DHT22;51319;52.162;5.302;2024-01-07T00:44:32;1.50;99.90
43999;DHT22;51319;52.162;5.302;2024-01-07T00:47:00;1.50;99.90
43999;DHT22;51319;52.162;5.302;2024-01-07T00:49:27;1.50;99.90
43999;DHT22;51319;52.162;5.302;2024-01-07T00:51:56;1.50;99.90
43999;DHT22;51319;52.162;5.302;2024-01-07T00:54:23;1.50;99.90
43999;DHT22;51319;52.162;5.302;2024-01-07T00:56:50;1.50;99.90
43999;DHT22;51319;52.162;5.302;2024-01-07T00:59:17;1.50;99.90
43999;DHT22;51319;52.162;5.302;2024-01-07T01:01:44;1.50;99.90
43999;DHT22;51319;52.162;5.302;2024-01-07T01:04:11;1.50;99.90
43999;DHT22;51319;52.162;5.302;2024-01-07T01:06:43;1.50;99.90
43999;DHT22;51319;52.162;5.302;2024-01-07T01:09:10;1.50;99.90
43999;DHT22;51319;52.162;5.302;2024-01-07T01:11:37;1.50;99.90
43999;DHT22;51319;52.162;5.302;2024-01-07T01:14:04;1.50;99.90
43999;DHT22;51319;52.162;5.302;2024-01-07T01:16:31;1.50;99.90
43999;DHT22;51319;52.162;5.302;2024-01-07T01:18:58;1.50;99.90
43999;DHT22;51319;52.162;5.302;2024-01-07T01:21:25;1.50;99.90
43999;DHT22;51319;52.162;5.302;2024-01-07T01:23:54;1.50;99.90
43999;DHT22;51319;52.162;5.302;2024-01-07T01:26:21;1.50;99.90
43999;DHT22;51319;52.162;5.302;2024-01-07T01:28:48;1.50;99.90
43999;DHT22;51319;52.162;5.302;2024-01-07T01:31:15;1.50;99.90
43999;DHT22;51319;52.162;5.302;2024-01-07T01:33:42;1.50;99.90
43999;DHT22;51319;52.162;5.302;2024-01-07T01:36:10;1.50;99.90
43999;DHT22;51319;52.162;5.302;2024-01-07T01:38:37;1.50;99.90
43999;DHT22;51319;52.162;5.302;2024-01-07T01:41:03;1.50;99.90
43999;DHT22;51319;52.162;5.302;2024-01-07T01:43:31;1.50;99.90
43999;DHT22;51319;52.162;5.302;2024-01-07T01:45:58;1.50;99.90
43999;DHT22;51319;52.162;5.302;2024-01-07T01:48:26;1.50;99.90
43999;DHT22;51319;52.162;5.302;2024-01-07T01:50:55;1.50;99.90
43999;DHT22;51319;52.162;5.302;2024-01-07T01:53:25;1.50;99.90
43999;DHT22;51319;52.162;5.302;2024-01-07T01:55:57;1.50;99.90
43999;DHT22;51319;52.162;5.302;2024-01-07T01:58:24;1.50;99.90
43999;DHT22;51319;52.162;5.302;2024-01-07T02:00:52;1.40;99.90
43999;DHT22;51319;52.162;5.302;2024-01-07T02:03:19;1.40;99.90
43999;DHT22;51319;52.162;5.302;2024-01-07T02:05:48;1.40;99.90
43999;DHT22;51319;52.162;5.302;2024-01-07T02:08:17;1.50;99.90
43999;DHT22;51319;52.162;5.302;2024-01-07T02:10:44;1.50;99.90
43999;DHT22;51319;52.162;5.302;2024-01-07T02:13:11;1.40;99.90
43999;DHT22;51319;52.162;5.302;2024-01-07T02:15:43;1.40;99.90
43999;DHT22;51319;52.162;5.302;2024-01-07T02:18:10;1.40;99.90
43999;DHT22;51319;52.162;5.302;2024-01-07T02:20:37;1.40;99.90
43999;DHT22;51319;52.162;5.302;2024-01-07T02:23:04;1.40;99.90
43999;DHT22;51319;52.162;5.302;2024-01-07T02:25:36;1.40;99.90
43999;DHT22;51319;52.162;5.302;2024-01-07T02:28:04;1.40;99.90
43999;DHT22;51319;52.162;5.302;2024-01-07T02:30:34;1.40;99.90
43999;DHT22;51319;52.162;5.302;2024-01-07T02:33:02;1.40;99.90
43999;DHT22;51319;52.162;5.302;2024-01-07T02:35:30;1.40;99.90
43999;DHT22;51319;52.162;5.302;2024-01-07T02:37:57;1.40;99.90
43999;DHT22;51319;52.162;5.302;2024-01-07T02:40:24;1.40;99.90
43999;DHT22;51319;52.162;5.302;2024-01-07T02:42:51;1.40;99.90
43999;DHT22;51319;52.162;5.302;2024-01-07T02:45:18;1.40;99.90
43999;DHT22;51319;52.162;5.302;2024-01-07T02:47:45;1.40;99.90
43999;DHT22;51319;52.162;5.302;2024-01-07T02:50:12;1.40;99.90
43999;DHT22;51319;52.162;5.302;2024-01-07T02:52:40;1.50;99.90
43999;DHT22;51319;52.162;5.302;2024-01-07T02:55:07;1.50;99.90
43999;DHT22;51319;52.162;5.302;2024-01-07T02:57:35;1.50;99.90
43999;DHT22;51319;52.162;5.302;2024-01-07T03:00:02;1.50;99.90
43999;DHT22;51319;52.162;5.302;2024-01-07T03:02:29;1.50;99.90
43999;DHT22;51319;52.162;5.302;2024-01-07T03:04:56;1.50;99.90
43999;DHT22;51319;52.162;5.302;2024-01-07T03:07:24;1.50;99.90
43999;DHT22;51319;52.162;5.302;2024-01-07T03:09:57;1.50;99.90
43999;DHT22;51319;52.162;5.302;2024-01-07T03:12:24;1.50;99.90
43999;DHT22;51319;52.162;5.302;2024-01-07T03:14:51;1.50;99.90
43999;DHT22;51319;52.162;5.302;2024-01-07T03:17:18;1.50;99.90
43999;DHT22;51319;52.162;5.302;2024-01-07T03:19:47;1.50;99.90
43999;DHT22;51319;52.162;5.302;2024-01-07T03:22:14;1.50;99.90
43999;DHT22;51319;52.162;5.302;2024-01-07T03:24:47;1.50;99.90
43999;DHT22;51319;52.162;5.302;2024-01-07T03:27:14;1.50;99.90
43999;DHT22;51319;52.162;5.302;2024-01-07T03:29:41;1.50;99.90
43999;DHT22;51319;52.162;5.302;2024-01-07T03:32:08;1.40;99.90
43999;DHT22;51319;52.162;5.302;2024-01-07T03:34:35;1.50;99.90
43999;DHT22;51319;52.162;5.302;2024-01-07T03:37:02;1.40;99.90
43999;DHT22;51319;52.162;5.302;2024-01-07T03:39:32;1.40;99.90
43999;DHT22;51319;52.162;5.302;2024-01-07T03:42:00;1.40;99.90
43999;DHT22;51319;52.162;5.302;2024-01-07T03:44:30;1.40;99.90
43999;DHT22;51319;52.162;5.302;2024-01-07T03:47:03;1.40;99.90
43999;DHT22;51319;52.162;5.302;2024-01-07T03:49:32;1.40;99.90
43999;DHT22;51319;52.162;5.302;2024-01-07T03:52:00;1.30;99.90
43999;DHT22;51319;52.162;5.302;2024-01-07T03:54:26;1.30;99.90
43999;DHT22;51319;52.162;5.302;2024-01-07T03:56:54;1.30;99.90
43999;DHT22;51319;52.162;5.302;2024-01-07T03:59:20;1.30;99.90
43999;DHT22;51319;52.162;5.302;2024-01-07T04:01:50;1.30;99.90
43999;DHT22;51319;52.162;5.302;2024-01-07T04:04:17;1.30;99.90
43999;DHT22;51319;52.162;5.302;2024-01-07T04:06:48;1.30;99.90
43999;DHT22;51319;52.162;5.302;2024-01-07T04:09:15;1.30;99.90
43999;DHT22;51319;52.162;5.302;2024-01-07T04:11:43;1.20;99.90
43999;DHT22;51319;52.162;5.302;2024-01-07T04:14:10;1.20;99.90
43999;DHT22;51319;52.162;5.302;2024-01-07T04:16:37;1.20;99.90
43999;DHT22;51319;52.162;5.302;2024-01-07T04:19:04;1.20;99.90
43999;DHT22;51319;52.162;5.302;2024-01-07T04:21:31;1.20;99.90
43999;DHT22;51319;52.162;5.302;2024-01-07T04:23:58;1.20;99.90
43999;DHT22;51319;52.162;5.302;2024-01-07T04:26:25;1.20;99.90
43999;DHT22;51319;52.162;5.302;2024-01-07T04:28:52;1.20;99.90
43999;DHT22;51319;52.162;5.302;2024-01-07T04:31:20;1.20;99.90
43999;DHT22;51319;52.162;5.302;2024-01-07T04:33:47;1.20;99.90
43999;DHT22;51319;52.162;5.302;2024-01-07T04:36:14;1.20;99.90
43999;DHT22;51319;52.162;5.302;2024-01-07T04:38:41;1.20;99.90
43999;DHT22;51319;52.162;5.302;2024-01-07T04:41:08;1.20;99.90
43999;DHT22;51319;52.162;5.302;2024-01-07T04:43:35;1.20;99.90
43999;DHT22;51319;52.162;5.302;2024-01-07T04:46:03;1.20;99.90
43999;DHT22;51319;52.162;5.302;2024-01-07T04:48:30;1.20;99.90
43999;DHT22;51319;52.162;5.302;2024-01-07T04:50:57;1.20;99.90
43999;DHT22;51319;52.162;5.302;2024-01-07T04:53:25;1.20;99.90
43999;DHT22;51319;52.162;5.302;2024-01-07T04:55:52;1.20;99.90
43999;DHT22;51319;52.162;5.302;2024-01-07T04:58:19;1.20;99.90
43999;DHT22;51319;52.162;5.302;2024-01-07T05:00:46;1.20;99.90
43999;DHT22;51319;52.162;5.302;2024-01-07T05:03:13;1.20;99.90
43999;DHT22;51319;52.162;5.302;2024-01-07T05:05:40;1.20;99.90
43999;DHT22;51319;52.162;5.302;2024-01-07T05:08:07;1.20;99.90
43999;DHT22;51319;52.162;5.302;2024-01-07T05:10:37;1.20;99.90
43999;DHT22;51319;52.162;5.302;2024-01-07T05:13:06;1.20;99.90
43999;DHT22;51319;52.162;5.302;2024-01-07T05:15:33;1.20;99.90
43999;DHT22;51319;52.162;5.302;2024-01-07T05:18:01;1.20;99.90
43999;DHT22;51319;52.162;5.302;2024-01-07T05:20:29;1.20;99.90
43999;DHT22;51319;52.162;5.302;2024-01-07T05:22:56;1.30;99.90
43999;DHT22;51319;52.162;5.302;2024-01-07T05:25:23;1.30;99.90
43999;DHT22;51319;52.162;5.302;2024-01-07T05:27:50;1.20;99.90
43999;DHT22;51319;52.162;5.302;2024-01-07T05:30:17;1.20;99.90
43999;DHT22;51319;52.162;5.302;2024-01-07T05:32:44;1.20;99.90
43999;DHT22;51319;52.162;5.302;2024-01-07T05:35:11;1.20;99.90
43999;DHT22;51319;52.162;5.302;2024-01-07T05:37:38;1.30;99.90
43999;DHT22;51319;52.162;5.302;2024-01-07T05:40:05;1.20;99.90
43999;DHT22;51319;52.162;5.302;2024-01-07T05:42:33;1.30;99.90
43999;DHT22;51319;52.162;5.302;2024-01-07T05:45:00;1.20;99.90
43999;DHT22;51319;52.162;5.302;2024-01-07T05:47:27;1.20;99.90
43999;DHT22;51319;52.162;5.302;2024-01-07T05:49:56;1.20;99.90
43999;DHT22;51319;52.162;5.302;2024-01-07T05:52:23;1.30;99.90
43999;DHT22;51319;52.162;5.302;2024-01-07T05:54:50;1.30;99.90
43999;DHT22;51319;52.162;5.302;2024-01-07T05:57:20;1.30;99.90
43999;DHT22;51319;52.162;5.302;2024-01-07T05:59:47;1.30;99.90
43999;DHT22;51319;52.162;5.302;2024-01-07T06:02:17;1.30;99.90
43999;DHT22;51319;52.162;5.302;2024-01-07T06:04:45;1.30;99.90
43999;DHT22;51319;52.162;5.302;2024-01-07T06:07:13;1.20;99.90
43999;DHT22;51319;52.162;5.302;2024-01-07T06:09:40;1.30;99.90
43999;DHT22;51319;52.162;5.302;2024-01-07T06:12:08;1.20;99.90
43999;DHT22;51319;52.162;5.302;2024-01-07T06:14:35;1.20;99.90
43999;DHT22;51319;52.162;5.302;2024-01-07T06:17:02;1.20;99.90
43999;DHT22;51319;52.162;5.302;2024-01-07T06:19:30;1.20;99.90
43999;DHT22;51319;52.162;5.302;2024-01-07T06:21:59;1.20;99.90
43999;DHT22;51319;52.162;5.302;2024-01-07T06:24:25;1.20;99.90
43999;DHT22;51319;52.162;5.302;2024-01-07T06:26:52;1.20;99.90
43999;DHT22;51319;52.162;5.302;2024-01-07T06:29:20;1.20;99.90
43999;DHT22;51319;52.162;5.302;2024-01-07T06:31:49;1.20;99.90
43999;DHT22;51319;52.162;5.302;2024-01-07T06:34:16;1.20;99.90
43999;DHT22;51319;52.162;5.302;2024-01-07T06:36:44;1.20;99.90
43999;DHT22;51319;52.162;5.302;2024-01-07T06:39:11;1.20;99.90
43999;DHT22;51319;52.162;5.302;2024-01-07T06:41:40;1.20;99.90
43999;DHT22;51319;52.162;5.302;2024-01-07T06:44:07;1.20;99.90
43999;DHT22;51319;52.162;5.302;2024-01-07T06:46:34;1.20;99.90
43999;DHT22;51319;52.162;5.302;2024-01-07T06:49:01;1.20;99.90
43999;DHT22;51319;52.162;5.302;2024-01-07T06:51:28;1.20;99.90
43999;DHT22;51319;52.162;5.302;2024-01-07T06:53:55;1.10;99.90
43999;DHT22;51319;52.162;5.302;2024-01-07T06:56:23;1.10;99.90
43999;DHT22;51319;52.162;5.302;2024-01-07T06:58:51;1.10;99.90
43999;DHT22;51319;52.162;5.302;2024-01-07T07:01:22;1.10;99.90
43999;DHT22;51319;52.162;5.302;2024-01-07T07:03:52;1.10;99.90
43999;DHT22;51319;52.162;5.302;2024-01-07T07:06:19;1.10;99.90
43999;DHT22;51319;52.162;5.302;2024-01-07T07:08:46;1.10;99.90
43999;DHT22;51319;52.162;5.302;2024-01-07T07:11:16;1.10;99.90
43999;DHT22;51319;52.162;5.302;2024-01-07T07:13:42;1.10;99.90
43999;DHT22;51319;52.162;5.302;2024-01-07T07:16:11;1.10;99.90
43999;DHT22;51319;52.162;5.302;2024-01-07T07:18:39;1.00;99.90
43999;DHT22;51319;52.162;5.302;2024-01-07T07:21:07;1.00;99.90
43999;DHT22;51319;52.162;5.302;2024-01-07T07:23:36;1.00;99.90
43999;DHT22;51319;52.162;5.302;2024-01-07T07:26:03;1.00;99.90
43999;DHT22;51319;52.162;5.302;2024-01-07T07:28:30;1.00;99.90
43999;DHT22;51319;52.162;5.302;2024-01-07T07:30:59;1.00;99.90
43999;DHT22;51319;52.162;5.302;2024-01-07T07:33:30;1.00;99.90
43999;DHT22;51319;52.162;5.302;2024-01-07T07:35:59;1.00;99.90
43999;DHT22;51319;52.162;5.302;2024-01-07T07:38:26;1.00;99.80
43999;DHT22;51319;52.162;5.302;2024-01-07T07:40:53;1.00;99.70
43999;DHT22;51319;52.162;5.302;2024-01-07T07:43:21;1.00;99.70
43999;DHT22;51319;52.162;5.302;2024-01-07T07:45:48;1.00;99.70
43999;DHT22;51319;52.162;5.302;2024-01-07T07:48:15;0.90;99.70
43999;DHT22;51319;52.162;5.302;2024-01-07T07:50:44;1.00;99.80
43999;DHT22;51319;52.162;5.302;2024-01-07T07:53:11;0.90;99.70
43999;DHT22;51319;52.162;5.302;2024-01-07T07:55:37;0.90;99.80
43999;DHT22;51319;52.162;5.302;2024-01-07T07:58:04;0.90;99.70
43999;DHT22;51319;52.162;5.302;2024-01-07T08:00:31;0.90;99.70
43999;DHT22;51319;52.162;5.302;2024-01-07T08:02:59;0.90;99.50
43999;DHT22;51319;52.162;5.302;2024-01-07T08:05:26;0.90;99.30
43999;DHT22;51319;52.162;5.302;2024-01-07T08:07:55;0.90;99.10
43999;DHT22;51319;52.162;5.302;2024-01-07T08:10:24;0.90;98.90
43999;DHT22;51319;52.162;5.302;2024-01-07T08:12:50;0.90;98.80
43999;DHT22;51319;52.162;5.302;2024-01-07T08:15:18;0.90;98.70
43999;DHT22;51319;52.162;5.302;2024-01-07T08:17:45;0.90;98.80
43999;DHT22;51319;52.162;5.302;2024-01-07T08:20:15;0.90;98.80
43999;DHT22;51319;52.162;5.302;2024-01-07T08:22:42;0.90;98.80
43999;DHT22;51319;52.162;5.302;2024-01-07T08:25:09;1.00;98.90
43999;DHT22;51319;52.162;5.302;2024-01-07T08:27:37;0.90;98.90
43999;DHT22;51319;52.162;5.302;2024-01-07T08:30:04;0.90;98.90
43999;DHT22;51319;52.162;5.302;2024-01-07T08:32:32;0.90;98.90
43999;DHT22;51319;52.162;5.302;2024-01-07T08:34:59;0.90;98.80
43999;DHT22;51319;52.162;5.302;2024-01-07T08:37:26;0.90;98.80
43999;DHT22;51319;52.162;5.302;2024-01-07T08:39:53;0.90;98.70
43999;DHT22;51319;52.162;5.302;2024-01-07T08:42:21;0.90;98.60
43999;DHT22;51319;52.162;5.302;2024-01-07T08:44:49;0.90;98.40
43999;DHT22;51319;52.162;5.302;2024-01-07T08:47:17;0.90;98.30
43999;DHT22;51319;52.162;5.302;2024-01-07T08:49:44;0.90;98.20
43999;DHT22;51319;52.162;5.302;2024-01-07T08:52:12;0.90;98.10
43999;DHT22;51319;52.162;5.302;2024-01-07T08:54:39;0.90;97.80
43999;DHT22;51319;52.162;5.302;2024-01-07T08:57:06;0.90;97.50
43999;DHT22;51319;52.162;5.302;2024-01-07T08:59:34;0.90;97.20
43999;DHT22;51319;52.162;5.302;2024-01-07T09:02:02;0.90;97.00
43999;DHT22;51319;52.162;5.302;2024-01-07T09:04:29;0.90;96.80
43999;DHT22;51319;52.162;5.302;2024-01-07T09:06:56;0.90;96.70
43999;DHT22;51319;52.162;5.302;2024-01-07T09:09:26;0.90;96.60
43999;DHT22;51319;52.162;5.302;2024-01-07T09:11:53;0.90;96.70
43999;DHT22;51319;52.162;5.302;2024-01-07T09:14:19;0.90;96.70
43999;DHT22;51319;52.162;5.302;2024-01-07T09:16:46;0.90;96.70
43999;DHT22;51319;52.162;5.302;2024-01-07T09:19:13;0.90;96.70
43999;DHT22;51319;52.162;5.302;2024-01-07T09:21:41;0.90;96.80
43999;DHT22;51319;52.162;5.302;2024-01-07T09:24:08;0.90;96.80
43999;DHT22;51319;52.162;5.302;2024-01-07T09:26:37;0.90;96.70
43999;DHT22;51319;52.162;5.302;2024-01-07T09:29:04;0.90;96.60
43999;DHT22;51319;52.162;5.302;2024-01-07T09:31:31;0.90;96.60
43999;DHT22;51319;52.162;5.302;2024-01-07T09:33:58;1.00;96.60
43999;DHT22;51319;52.162;5.302;2024-01-07T09:36:26;1.00;96.60
43999;DHT22;51319;52.162;5.302;2024-01-07T09:38:56;1.00;96.50
43999;DHT22;51319;52.162;5.302;2024-01-07T09:41:23;1.00;96.40
43999;DHT22;51319;52.162;5.302;2024-01-07T09:43:51;1.00;96.30
43999;DHT22;51319;52.162;5.302;2024-01-07T09:46:22;1.00;96.20
43999;DHT22;51319;52.162;5.302;2024-01-07T09:48:50;1.00;95.90
43999;DHT22;51319;52.162;5.302;2024-01-07T09:51:22;1.00;95.70
43999;DHT22;51319;52.162;5.302;2024-01-07T09:53:57;1.00;95.50
43999;DHT22;51319;52.162;5.302;2024-01-07T09:56:31;1.00;95.40
43999;DHT22;51319;52.162;5.302;2024-01-07T09:59:01;0.90;95.40
43999;DHT22;51319;52.162;5.302;2024-01-07T10:01:28;0.90;95.00
43999;DHT22;51319;52.162;5.302;2024-01-07T10:03:58;0.90;94.90
43999;DHT22;51319;52.162;5.302;2024-01-07T10:06:26;0.90;94.80
43999;DHT22;51319;52.162;5.302;2024-01-07T10:08:53;0.90;94.60
43999;DHT22;51319;52.162;5.302;2024-01-07T10:11:22;0.90;94.40
43999;DHT22;51319;52.162;5.302;2024-01-07T10:13:49;0.80;94.30
43999;DHT22;51319;52.162;5.302;2024-01-07T10:16:18;0.90;94.30
43999;DHT22;51319;52.162;5.302;2024-01-07T10:18:46;0.90;94.30
43999;DHT22;51319;52.162;5.302;2024-01-07T10:21:14;1.00;94.30
43999;DHT22;51319;52.162;5.302;2024-01-07T10:23:41;1.00;94.20
43999;DHT22;51319;52.162;5.302;2024-01-07T10:26:09;1.20;94.20
43999;DHT22;51319;52.162;5.302;2024-01-07T10:28:49;1.30;94.20
43999;DHT22;51319;52.162;5.302;2024-01-07T10:31:16;1.50;94.00
43999;DHT22;51319;52.162;5.302;2024-01-07T10:33:44;1.60;93.80
43999;DHT22;51319;52.162;5.302;2024-01-07T10:36:11;1.80;93.30
43999;DHT22;51319;52.162;5.302;2024-01-07T10:38:40;1.70;92.80
43999;DHT22;51319;52.162;5.302;2024-01-07T10:41:11;1.80;92.10
43999;DHT22;51319;52.162;5.302;2024-01-07T10:43:39;1.90;92.00
43999;DHT22;51319;52.162;5.302;2024-01-07T10:46:06;2.10;91.80
43999;DHT22;51319;52.162;5.302;2024-01-07T10:48:38;2.20;91.00
43999;DHT22;51319;52.162;5.302;2024-01-07T10:51:05;2.20;90.60
43999;DHT22;51319;52.162;5.302;2024-01-07T10:53:34;2.20;90.30
43999;DHT22;51319;52.162;5.302;2024-01-07T10:56:05;2.40;90.10
43999;DHT22;51319;52.162;5.302;2024-01-07T10:58:33;2.30;88.90
43999;DHT22;51319;52.162;5.302;2024-01-07T11:01:02;2.30;88.50
43999;DHT22;51319;52.162;5.302;2024-01-07T11:06:20;2.40;87.70
43999;DHT22;51319;52.162;5.302;2024-01-07T11:11:47;3.50;86.10
43999;DHT22;51319;52.162;5.302;2024-01-07T11:17:00;3.70;81.40
43999;DHT22;51319;52.162;5.302;2024-01-07T11:19:27;3.50;81.30
43999;DHT22;51319;52.162;5.302;2024-01-07T11:25:00;3.30;81.10
43999;DHT22;51319;52.162;5.302;2024-01-07T11:27:29;3.30;80.80
43999;DHT22;51319;52.162;5.302;2024-01-07T11:30:18;3.40;80.70
43999;DHT22;51319;52.162;5.302;2024-01-07T11:32:45;3.70;80.50
43999;DHT22;51319;52.162;5.302;2024-01-07T11:35:45;4.10;80.00
43999;DHT22;51319;52.162;5.302;2024-01-07T11:38:08;4.30;79.20
43999;DHT22;51319;52.162;5.302;2024-01-07T11:40:36;4.30;77.70
43999;DHT22;51319;52.162;5.302;2024-01-07T11:43:03;4.20;76.40
43999;DHT22;51319;52.162;5.302;2024-01-07T11:45:31;4.20;76.00
43999;DHT22;51319;52.162;5.302;2024-01-07T11:47:59;4.40;76.80
43999;DHT22;51319;52.162;5.302;2024-01-07T11:50:29;4.40;75.20
43999;DHT22;51319;52.162;5.302;2024-01-07T11:52:58;4.10;74.50
43999;DHT22;51319;52.162;5.302;2024-01-07T11:55:26;3.80;74.60
43999;DHT22;51319;52.162;5.302;2024-01-07T11:57:55;3.50;74.70
43999;DHT22;51319;52.162;5.302;2024-01-07T12:00:22;3.10;75.30
43999;DHT22;51319;52.162;5.302;2024-01-07T12:02:49;2.90;75.80
43999;DHT22;51319;52.162;5.302;2024-01-07T12:05:16;2.70;76.80
43999;DHT22;51319;52.162;5.302;2024-01-07T12:07:43;2.60;77.10
43999;DHT22;51319;52.162;5.302;2024-01-07T12:10:11;2.50;77.70
43999;DHT22;51319;52.162;5.302;2024-01-07T12:12:42;2.40;77.70
43999;DHT22;51319;52.162;5.302;2024-01-07T12:15:10;2.30;77.20
43999;DHT22;51319;52.162;5.302;2024-01-07T12:17:39;2.20;77.40
43999;DHT22;51319;52.162;5.302;2024-01-07T12:20:07;2.10;77.70
43999;DHT22;51319;52.162;5.302;2024-01-07T12:22:38;2.00;77.50
43999;DHT22;51319;52.162;5.302;2024-01-07T12:25:07;2.00;78.30
43999;DHT22;51319;52.162;5.302;2024-01-07T12:27:35;2.00;78.60
43999;DHT22;51319;52.162;5.302;2024-01-07T12:30:02;2.00;78.80
43999;DHT22;51319;52.162;5.302;2024-01-07T12:32:31;2.00;78.50
43999;DHT22;51319;52.162;5.302;2024-01-07T12:34:59;1.90;78.20
43999;DHT22;51319;52.162;5.302;2024-01-07T12:37:30;1.90;77.70
43999;DHT22;51319;52.162;5.302;2024-01-07T12:39:57;1.90;77.80
43999;DHT22;51319;52.162;5.302;2024-01-07T12:42:24;1.90;78.20
43999;DHT22;51319;52.162;5.302;2024-01-07T12:44:51;2.00;78.80
43999;DHT22;51319;52.162;5.302;2024-01-07T12:47:18;2.10;78.50
43999;DHT22;51319;52.162;5.302;2024-01-07T12:49:45;2.20;78.40
43999;DHT22;51319;52.162;5.302;2024-01-07T12:52:15;2.40;78.40
43999;DHT22;51319;52.162;5.302;2024-01-07T12:54:42;2.70;78.20
43999;DHT22;51319;52.162;5.302;2024-01-07T12:57:11;2.80;77.80
43999;DHT22;51319;52.162;5.302;2024-01-07T12:59:39;3.00;77.60
43999;DHT22;51319;52.162;5.302;2024-01-07T13:02:11;3.00;76.80
43999;DHT22;51319;52.162;5.302;2024-01-07T13:04:38;2.90;75.00
43999;DHT22;51319;52.162;5.302;2024-01-07T13:07:06;2.80;75.20
43999;DHT22;51319;52.162;5.302;2024-01-07T13:09:33;2.70;75.40
43999;DHT22;51319;52.162;5.302;2024-01-07T13:12:00;2.80;76.00
43999;DHT22;51319;52.162;5.302;2024-01-07T13:14:27;2.80;75.80
43999;DHT22;51319;52.162;5.302;2024-01-07T13:16:55;2.70;75.70
43999;DHT22;51319;52.162;5.302;2024-01-07T13:19:24;2.60;75.50
43999;DHT22;51319;52.162;5.302;2024-01-07T13:21:53;2.50;75.70
43999;DHT22;51319;52.162;5.302;2024-01-07T13:24:27;2.30;75.80
43999;DHT22;51319;52.162;5.302;2024-01-07T13:26:54;2.20;76.20
43999;DHT22;51319;52.162;5.302;2024-01-07T13:29:22;2.10;76.60
43999;DHT22;51319;52.162;5.302;2024-01-07T13:31:51;2.00;76.70
43999;DHT22;51319;52.162;5.302;2024-01-07T13:34:21;2.00;77.20
43999;DHT22;51319;52.162;5.302;2024-01-07T13:36:48;2.00;77.80
43999;DHT22;51319;52.162;5.302;2024-01-07T13:39:15;1.90;77.90
43999;DHT22;51319;52.162;5.302;2024-01-07T13:41:43;1.90;78.20
43999;DHT22;51319;52.162;5.302;2024-01-07T13:44:10;2.00;78.70
43999;DHT22;51319;52.162;5.302;2024-01-07T13:46:49;2.10;79.10
43999;DHT22;51319;52.162;5.302;2024-01-07T13:49:18;2.20;78.90
43999;DHT22;51319;52.162;5.302;2024-01-07T13:51:46;2.30;78.10
43999;DHT22;51319;52.162;5.302;2024-01-07T13:54:13;2.20;77.30
43999;DHT22;51319;52.162;5.302;2024-01-07T13:56:42;2.20;76.80
43999;DHT22;51319;52.162;5.302;2024-01-07T13:59:11;2.10;76.80
43999;DHT22;51319;52.162;5.302;2024-01-07T14:01:39;2.00;77.10
43999;DHT22;51319;52.162;5.302;2024-01-07T14:04:09;1.90;77.10
43999;DHT22;51319;52.162;5.302;2024-01-07T14:06:36;1.80;77.40
43999;DHT22;51319;52.162;5.302;2024-01-07T14:09:03;1.80;77.80
43999;DHT22;51319;52.162;5.302;2024-01-07T14:11:33;1.90;77.90
43999;DHT22;51319;52.162;5.302;2024-01-07T14:14:00;2.10;78.00
43999;DHT22;51319;52.162;5.302;2024-01-07T14:16:28;2.30;77.20
43999;DHT22;51319;52.162;5.302;2024-01-07T14:18:55;2.50;76.20
43999;DHT22;51319;52.162;5.302;2024-01-07T14:21:22;2.40;75.60
43999;DHT22;51319;52.162;5.302;2024-01-07T14:23:49;2.30;75.80
43999;DHT22;51319;52.162;5.302;2024-01-07T14:26:16;2.20;76.00
43999;DHT22;51319;52.162;5.302;2024-01-07T14:28:43;2.20;75.80
43999;DHT22;51319;52.162;5.302;2024-01-07T14:31:11;2.10;75.90
43999;DHT22;51319;52.162;5.302;2024-01-07T14:33:38;2.10;76.30
43999;DHT22;51319;52.162;5.302;2024-01-07T14:36:06;2.30;77.30
43999;DHT22;51319;52.162;5.302;2024-01-07T14:38:33;2.60;76.80
43999;DHT22;51319;52.162;5.302;2024-01-07T14:41:00;3.00;76.10
43999;DHT22;51319;52.162;5.302;2024-01-07T14:43:27;3.10;74.50
43999;DHT22;51319;52.162;5.302;2024-01-07T14:45:54;3.00;73.70
43999;DHT22;51319;52.162;5.302;2024-01-07T14:48:21;2.70;73.90
43999;DHT22;51319;52.162;5.302;2024-01-07T14:50:48;2.40;74.60
43999;DHT22;51319;52.162;5.302;2024-01-07T14:53:15;2.10;75.00
43999;DHT22;51319;52.162;5.302;2024-01-07T14:55:43;1.90;75.50
43999;DHT22;51319;52.162;5.302;2024-01-07T14:58:10;1.80;76.30
43999;DHT22;51319;52.162;5.302;2024-01-07T15:00:37;1.60;77.10
43999;DHT22;51319;52.162;5.302;2024-01-07T15:03:06;1.50;77.70
43999;DHT22;51319;52.162;5.302;2024-01-07T15:05:33;1.50;78.60
43999;DHT22;51319;52.162;5.302;2024-01-07T15:08:00;1.40;78.70
43999;DHT22;51319;52.162;5.302;2024-01-07T15:10:27;1.20;79.10
43999;DHT22;51319;52.162;5.302;2024-01-07T15:12:54;1.10;79.20
43999;DHT22;51319;52.162;5.302;2024-01-07T15:15:32;1.00;79.30
43999;DHT22;51319;52.162;5.302;2024-01-07T15:17:59;0.90;79.30
43999;DHT22;51319;52.162;5.302;2024-01-07T15:20:26;0.80;79.50
43999;DHT22;51319;52.162;5.302;2024-01-07T15:22:54;0.70;80.10
43999;DHT22;51319;52.162;5.302;2024-01-07T15:25:21;0.60;80.30
43999;DHT22;51319;52.162;5.302;2024-01-07T15:27:48;0.60;80.40
43999;DHT22;51319;52.162;5.302;2024-01-07T15:30:15;0.50;80.50
43999;DHT22;51319;52.162;5.302;2024-01-07T15:32:44;0.50;80.80
43999;DHT22;51319;52.162;5.302;2024-01-07T15:35:12;0.40;81.10
43999;DHT22;51319;52.162;5.302;2024-01-07T15:37:39;0.40;81.30
43999;DHT22;51319;52.162;5.302;2024-01-07T15:40:07;0.40;81.60
43999;DHT22;51319;52.162;5.302;2024-01-07T15:42:38;0.30;81.80
43999;DHT22;51319;52.162;5.302;2024-01-07T15:45:05;0.20;82.30
43999;DHT22;51319;52.162;5.302;2024-01-07T15:47:36;0.10;83.50
43999;DHT22;51319;52.162;5.302;2024-01-07T15:50:06;0.10;83.30
43999;DHT22;51319;52.162;5.302;2024-01-07T15:52:33;0.00;83.70
43999;DHT22;51319;52.162;5.302;2024-01-07T15:55:00;-0.10;84.00
43999;DHT22;51319;52.162;5.302;2024-01-07T15:57:29;-0.10;84.60
43999;DHT22;51319;52.162;5.302;2024-01-07T15:59:56;-0.10;85.00